sensor_id;sensor_type;location;lat;lon;timestamp;P1;durP1;ratioP1;P2;durP2;ratioP2
67051;SDS011;53957;47.222;18.670;2022-11-09T05:23:21;37.50;;;16.27;;
67051;SDS011;53957;47.222;18.670;2022-11-09T05:26:42;25.17;;;12.65;;
67051;SDS011;53957;47.222;18.670;2022-11-09T05:29:45;23.23;;;9.85;;
67051;SDS011;53957;47.222;18.670;2022-11-09T05:32:48;35.63;;;14.40;;
67051;SDS011;53957;47.222;18.670;2022-11-09T05:35:53;39.67;;;17.73;;
67051;SDS011;53957;47.222;18.670;2022-11-09T05:38:57;57.25;;;17.62;;
67051;SDS011;53957;47.222;18.670;2022-11-09T05:41:59;24.48;;;11.93;;
67051;SDS011;53957;47.222;18.670;2022-11-09T05:45:02;39.70;;;16.25;;
67051;SDS011;53957;47.222;18.670;2022-11-09T05:48:25;35.72;;;13.32;;
67051;SDS011;53957;47.222;18.670;2022-11-09T05:51:28;32.08;;;14.25;;
67051;SDS011;53957;47.222;18.670;2022-11-09T05:54:32;40.15;;;16.42;;
67051;SDS011;53957;47.222;18.670;2022-11-09T05:57:35;33.65;;;14.68;;
67051;SDS011;53957;47.222;18.670;2022-11-09T06:00:37;19.85;;;11.55;;
67051;SDS011;53957;47.222;18.670;2022-11-09T06:03:41;26.90;;;12.95;;
67051;SDS011;53957;47.222;18.670;2022-11-09T06:06:45;32.00;;;12.50;;
67051;SDS011;53957;47.222;18.670;2022-11-09T06:09:48;53.85;;;17.10;;
67051;SDS011;53957;47.222;18.670;2022-11-09T06:12:52;46.63;;;15.38;;
67051;SDS011;53957;47.222;18.670;2022-11-09T06:15:56;36.15;;;14.43;;
67051;SDS011;53957;47.222;18.670;2022-11-09T06:19:00;35.28;;;15.00;;
67051;SDS011;53957;47.222;18.670;2022-11-09T06:22:03;38.90;;;16.62;;
67051;SDS011;53957;47.222;18.670;2022-11-09T06:25:06;35.22;;;14.52;;
67051;SDS011;53957;47.222;18.670;2022-11-09T06:28:10;25.55;;;10.85;;
67051;SDS011;53957;47.222;18.670;2022-11-09T06:31:13;23.95;;;10.73;;
67051;SDS011;53957;47.222;18.670;2022-11-09T06:34:19;25.30;;;12.15;;
67051;SDS011;53957;47.222;18.670;2022-11-09T06:37:21;54.25;;;16.83;;
67051;SDS011;53957;47.222;18.670;2022-11-09T06:40:24;37.38;;;13.27;;
67051;SDS011;53957;47.222;18.670;2022-11-09T06:43:28;38.60;;;15.13;;
67051;SDS011;53957;47.222;18.670;2022-11-09T06:46:31;27.73;;;11.77;;
67051;SDS011;53957;47.222;18.670;2022-11-09T06:49:35;26.52;;;13.65;;
67051;SDS011;53957;47.222;18.670;2022-11-09T06:52:38;27.42;;;11.02;;
67051;SDS011;53957;47.222;18.670;2022-11-09T06:55:40;30.48;;;14.75;;
67051;SDS011;53957;47.222;18.670;2022-11-09T06:58:51;41.10;;;15.70;;
67051;SDS011;53957;47.222;18.670;2022-11-09T07:01:54;34.60;;;13.32;;
67051;SDS011;53957;47.222;18.670;2022-11-09T07:05:03;24.75;;;12.05;;
67051;SDS011;53957;47.222;18.670;2022-11-09T07:08:06;35.92;;;14.18;;
67051;SDS011;53957;47.222;18.670;2022-11-09T07:11:10;27.85;;;12.93;;
67051;SDS011;53957;47.222;18.670;2022-11-09T07:14:15;31.20;;;15.38;;
67051;SDS011;53957;47.222;18.670;2022-11-09T07:17:18;27.10;;;12.43;;
67051;SDS011;53957;47.222;18.670;2022-11-09T08:38:06;41.65;;;16.52;;
67051;SDS011;53957;47.222;18.670;2022-11-09T08:41:14;31.33;;;14.93;;
67051;SDS011;53957;47.222;18.670;2022-11-09T08:44:17;33.78;;;14.27;;
67051;SDS011;53957;47.222;18.670;2022-11-09T08:47:44;35.28;;;13.82;;
67051;SDS011;53957;47.222;18.670;2022-11-09T09:05:43;51.47;;;19.30;;
67051;SDS011;53957;47.222;18.670;2022-11-09T09:08:46;49.83;;;20.65;;
67051;SDS011;53957;47.222;18.670;2022-11-09T09:11:49;50.53;;;18.85;;
67051;SDS011;53957;47.222;18.670;2022-11-09T09:14:52;47.88;;;19.12;;
67051;SDS011;53957;47.222;18.670;2022-11-09T09:17:57;38.45;;;17.05;;
67051;SDS011;53957;47.222;18.670;2022-11-09T09:21:04;38.10;;;16.25;;
67051;SDS011;53957;47.222;18.670;2022-11-09T09:24:08;38.67;;;16.73;;
67051;SDS011;53957;47.222;18.670;2022-11-09T09:27:11;37.28;;;13.07;;
67051;SDS011;53957;47.222;18.670;2022-11-09T09:30:14;52.58;;;19.83;;
67051;SDS011;53957;47.222;18.670;2022-11-09T09:33:18;48.08;;;18.92;;
67051;SDS011;53957;47.222;18.670;2022-11-09T09:36:21;61.65;;;18.67;;
67051;SDS011;53957;47.222;18.670;2022-11-09T09:39:25;42.03;;;18.65;;
67051;SDS011;53957;47.222;18.670;2022-11-09T09:42:30;42.20;;;17.48;;
67051;SDS011;53957;47.222;18.670;2022-11-09T09:45:47;66.95;;;20.15;;
67051;SDS011;53957;47.222;18.670;2022-11-09T09:52:23;48.17;;;19.87;;
67051;SDS011;53957;47.222;18.670;2022-11-09T09:55:35;40.45;;;19.17;;
67051;SDS011;53957;47.222;18.670;2022-11-09T09:58:45;36.13;;;17.58;;
67051;SDS011;53957;47.222;18.670;2022-11-09T10:01:55;45.42;;;20.55;;
67051;SDS011;53957;47.222;18.670;2022-11-09T10:05:00;54.63;;;22.13;;
67051;SDS011;53957;47.222;18.670;2022-11-09T10:08:17;50.03;;;22.48;;
67051;SDS011;53957;47.222;18.670;2022-11-09T10:25:26;53.65;;;23.95;;
67051;SDS011;53957;47.222;18.670;2022-11-09T10:28:46;60.97;;;24.10;;
67051;SDS011;53957;47.222;18.670;2022-11-09T10:32:18;52.53;;;22.58;;
67051;SDS011;53957;47.222;18.670;2022-11-09T10:35:30;48.80;;;21.60;;
67051;SDS011;53957;47.222;18.670;2022-11-09T10:38:42;51.15;;;21.90;;
67051;SDS011;53957;47.222;18.670;2022-11-09T10:42:08;30.25;;;17.60;;
67051;SDS011;53957;47.222;18.670;2022-11-09T10:45:34;47.15;;;21.00;;
67051;SDS011;53957;47.222;18.670;2022-11-09T10:49:07;63.60;;;24.63;;
67051;SDS011;53957;47.222;18.670;2022-11-09T10:52:41;33.08;;;18.45;;
67051;SDS011;53957;47.222;18.670;2022-11-09T10:56:14;50.67;;;20.90;;
67051;SDS011;53957;47.222;18.670;2022-11-09T11:03:16;48.40;;;17.90;;
67051;SDS011;53957;47.222;18.670;2022-11-09T11:06:39;55.42;;;23.33;;
67051;SDS011;53957;47.222;18.670;2022-11-09T11:10:43;61.10;;;23.35;;
67051;SDS011;53957;47.222;18.670;2022-11-09T11:14:41;43.95;;;19.62;;
67051;SDS011;53957;47.222;18.670;2022-11-09T11:18:00;42.03;;;19.60;;
67051;SDS011;53957;47.222;18.670;2022-11-09T11:21:22;38.67;;;16.73;;
67051;SDS011;53957;47.222;18.670;2022-11-09T11:24:49;61.17;;;26.52;;
67051;SDS011;53957;47.222;18.670;2022-11-09T11:28:33;32.70;;;16.87;;
67051;SDS011;53957;47.222;18.670;2022-11-09T11:32:00;51.83;;;23.45;;
67051;SDS011;53957;47.222;18.670;2022-11-09T11:39:12;48.65;;;19.05;;
67051;SDS011;53957;47.222;18.670;2022-11-09T11:50:31;53.25;;;23.77;;
67051;SDS011;53957;47.222;18.670;2022-11-09T12:01:37;41.28;;;20.25;;
67051;SDS011;53957;47.222;18.670;2022-11-09T12:35:56;47.47;;;22.55;;
67051;SDS011;53957;47.222;18.670;2022-11-09T12:39:27;47.47;;;22.42;;
67051;SDS011;53957;47.222;18.670;2022-11-09T12:46:25;44.97;;;21.77;;
67051;SDS011;53957;47.222;18.670;2022-11-09T12:49:50;44.22;;;21.48;;
67051;SDS011;53957;47.222;18.670;2022-11-09T12:53:14;49.17;;;24.05;;
67051;SDS011;53957;47.222;18.670;2022-11-09T12:56:39;54.17;;;23.35;;
67051;SDS011;53957;47.222;18.670;2022-11-09T13:00:13;54.45;;;30.20;;
67051;SDS011;53957;47.222;18.670;2022-11-09T13:03:55;63.47;;;28.10;;
67051;SDS011;53957;47.222;18.670;2022-11-09T13:07:29;62.88;;;31.00;;
67051;SDS011;53957;47.222;18.670;2022-11-09T13:11:06;62.60;;;29.48;;
67051;SDS011;53957;47.222;18.670;2022-11-09T13:14:31;58.35;;;27.90;;
67051;SDS011;53957;47.222;18.670;2022-11-09T13:17:56;55.53;;;28.25;;
67051;SDS011;53957;47.222;18.670;2022-11-09T13:42:39;46.05;;;23.45;;
67051;SDS011;53957;47.222;18.670;2022-11-09T13:46:43;51.80;;;25.45;;
67051;SDS011;53957;47.222;18.670;2022-11-09T13:49:53;52.70;;;25.65;;
67051;SDS011;53957;47.222;18.670;2022-11-09T13:57:08;42.97;;;22.90;;
67051;SDS011;53957;47.222;18.670;2022-11-09T14:00:30;49.55;;;23.23;;
67051;SDS011;53957;47.222;18.670;2022-11-09T14:03:52;55.30;;;24.50;;
67051;SDS011;53957;47.222;18.670;2022-11-09T14:07:24;44.40;;;23.95;;
67051;SDS011;53957;47.222;18.670;2022-11-09T14:15:02;53.05;;;24.87;;
67051;SDS011;53957;47.222;18.670;2022-11-09T14:18:39;52.28;;;24.83;;
67051;SDS011;53957;47.222;18.670;2022-11-09T14:22:14;45.50;;;23.70;;
67051;SDS011;53957;47.222;18.670;2022-11-09T14:29:22;37.00;;;20.40;;
67051;SDS011;53957;47.222;18.670;2022-11-09T14:32:52;48.05;;;24.85;;
67051;SDS011;53957;47.222;18.670;2022-11-09T14:36:13;49.45;;;25.50;;
67051;SDS011;53957;47.222;18.670;2022-11-09T14:39:34;50.05;;;25.05;;
67051;SDS011;53957;47.222;18.670;2022-11-09T14:46:30;69.72;;;30.67;;
67051;SDS011;53957;47.222;18.670;2022-11-09T14:49:52;91.60;;;40.08;;
67051;SDS011;53957;47.222;18.670;2022-11-09T14:53:15;67.20;;;30.10;;
67051;SDS011;53957;47.222;18.670;2022-11-09T14:56:42;62.35;;;28.05;;
67051;SDS011;53957;47.222;18.670;2022-11-09T15:00:04;57.95;;;29.83;;
67051;SDS011;53957;47.222;18.670;2022-11-09T15:03:40;62.22;;;28.80;;
67051;SDS011;53957;47.222;18.670;2022-11-09T15:07:02;60.92;;;28.38;;
67051;SDS011;53957;47.222;18.670;2022-11-09T15:10:24;61.42;;;26.98;;
67051;SDS011;53957;47.222;18.670;2022-11-09T15:13:49;58.53;;;29.70;;
67051;SDS011;53957;47.222;18.670;2022-11-09T15:17:14;65.60;;;30.85;;
67051;SDS011;53957;47.222;18.670;2022-11-09T15:20:39;53.00;;;26.23;;
67051;SDS011;53957;47.222;18.670;2022-11-09T15:24:22;58.38;;;26.10;;
67051;SDS011;53957;47.222;18.670;2022-11-09T15:27:53;65.57;;;29.42;;
67051;SDS011;53957;47.222;18.670;2022-11-09T15:31:17;49.03;;;25.70;;
67051;SDS011;53957;47.222;18.670;2022-11-09T15:34:40;56.78;;;26.62;;
67051;SDS011;53957;47.222;18.670;2022-11-09T15:42:01;54.38;;;25.98;;
67051;SDS011;53957;47.222;18.670;2022-11-09T15:45:22;52.65;;;25.37;;
67051;SDS011;53957;47.222;18.670;2022-11-09T15:48:44;61.15;;;27.27;;
67051;SDS011;53957;47.222;18.670;2022-11-09T15:52:07;59.17;;;25.88;;
67051;SDS011;53957;47.222;18.670;2022-11-09T15:55:31;60.22;;;27.60;;
67051;SDS011;53957;47.222;18.670;2022-11-09T15:58:52;64.53;;;27.30;;
67051;SDS011;53957;47.222;18.670;2022-11-09T16:02:14;52.85;;;26.58;;
67051;SDS011;53957;47.222;18.670;2022-11-09T16:05:35;68.90;;;28.98;;
67051;SDS011;53957;47.222;18.670;2022-11-09T16:08:57;62.55;;;29.08;;
67051;SDS011;53957;47.222;18.670;2022-11-09T16:12:18;60.10;;;27.05;;
67051;SDS011;53957;47.222;18.670;2022-11-09T16:15:39;56.45;;;28.02;;
67051;SDS011;53957;47.222;18.670;2022-11-09T16:19:01;65.40;;;31.60;;
67051;SDS011;53957;47.222;18.670;2022-11-09T16:22:22;63.33;;;30.08;;
67051;SDS011;53957;47.222;18.670;2022-11-09T16:25:43;68.53;;;29.50;;
67051;SDS011;53957;47.222;18.670;2022-11-09T16:29:05;64.40;;;29.23;;
67051;SDS011;53957;47.222;18.670;2022-11-09T16:32:27;63.83;;;27.87;;
67051;SDS011;53957;47.222;18.670;2022-11-09T16:35:49;64.22;;;28.23;;
67051;SDS011;53957;47.222;18.670;2022-11-09T16:39:10;62.45;;;27.30;;
67051;SDS011;53957;47.222;18.670;2022-11-09T16:42:37;73.47;;;29.48;;
67051;SDS011;53957;47.222;18.670;2022-11-09T16:45:59;68.95;;;30.08;;
67051;SDS011;53957;47.222;18.670;2022-11-09T16:49:20;71.68;;;32.50;;
67051;SDS011;53957;47.222;18.670;2022-11-09T16:52:42;67.45;;;30.75;;
67051;SDS011;53957;47.222;18.670;2022-11-09T16:56:03;72.62;;;31.20;;
67051;SDS011;53957;47.222;18.670;2022-11-09T16:59:25;73.00;;;31.08;;
67051;SDS011;53957;47.222;18.670;2022-11-09T17:02:46;74.43;;;31.25;;
67051;SDS011;53957;47.222;18.670;2022-11-09T17:06:08;67.75;;;30.20;;
67051;SDS011;53957;47.222;18.670;2022-11-09T17:09:34;70.00;;;29.83;;
67051;SDS011;53957;47.222;18.670;2022-11-09T17:12:56;70.80;;;31.90;;
67051;SDS011;53957;47.222;18.670;2022-11-09T17:16:17;63.55;;;29.70;;
67051;SDS011;53957;47.222;18.670;2022-11-09T17:19:40;67.03;;;28.77;;
67051;SDS011;53957;47.222;18.670;2022-11-09T17:23:01;67.82;;;31.40;;
67051;SDS011;53957;47.222;18.670;2022-11-09T17:26:23;70.72;;;32.78;;
67051;SDS011;53957;47.222;18.670;2022-11-09T17:29:45;67.62;;;32.30;;
67051;SDS011;53957;47.222;18.670;2022-11-09T17:33:07;65.97;;;31.12;;
67051;SDS011;53957;47.222;18.670;2022-11-09T17:36:29;63.65;;;31.00;;
67051;SDS011;53957;47.222;18.670;2022-11-09T17:40:16;63.35;;;30.98;;
67051;SDS011;53957;47.222;18.670;2022-11-09T17:43:40;70.65;;;29.75;;
67051;SDS011;53957;47.222;18.670;2022-11-09T17:47:02;71.18;;;31.05;;
67051;SDS011;53957;47.222;18.670;2022-11-09T17:50:26;72.55;;;33.00;;
67051;SDS011;53957;47.222;18.670;2022-11-09T17:53:47;71.55;;;30.73;;
67051;SDS011;53957;47.222;18.670;2022-11-09T17:57:10;63.00;;;30.83;;
67051;SDS011;53957;47.222;18.670;2022-11-09T18:00:32;70.65;;;30.95;;
67051;SDS011;53957;47.222;18.670;2022-11-09T18:03:53;58.47;;;28.20;;
67051;SDS011;53957;47.222;18.670;2022-11-09T18:07:15;61.83;;;30.52;;
67051;SDS011;53957;47.222;18.670;2022-11-09T18:10:37;64.15;;;30.45;;
67051;SDS011;53957;47.222;18.670;2022-11-09T18:14:00;69.60;;;31.20;;
67051;SDS011;53957;47.222;18.670;2022-11-09T18:17:22;75.18;;;33.30;;
67051;SDS011;53957;47.222;18.670;2022-11-09T18:20:43;73.20;;;33.70;;
67051;SDS011;53957;47.222;18.670;2022-11-09T18:24:05;70.68;;;32.00;;
67051;SDS011;53957;47.222;18.670;2022-11-09T18:27:27;80.93;;;35.03;;
67051;SDS011;53957;47.222;18.670;2022-11-09T18:30:50;72.82;;;34.70;;
67051;SDS011;53957;47.222;18.670;2022-11-09T18:34:11;70.30;;;33.17;;
67051;SDS011;53957;47.222;18.670;2022-11-09T18:37:33;77.90;;;34.50;;
67051;SDS011;53957;47.222;18.670;2022-11-09T18:40:58;75.80;;;34.90;;
67051;SDS011;53957;47.222;18.670;2022-11-09T18:44:24;79.20;;;36.00;;
67051;SDS011;53957;47.222;18.670;2022-11-09T18:47:48;81.63;;;33.80;;
67051;SDS011;53957;47.222;18.670;2022-11-09T18:51:10;80.95;;;34.85;;
67051;SDS011;53957;47.222;18.670;2022-11-09T19:05:39;73.87;;;33.72;;
67051;SDS011;53957;47.222;18.670;2022-11-09T19:09:01;69.20;;;32.22;;
67051;SDS011;53957;47.222;18.670;2022-11-09T19:12:41;77.37;;;35.53;;
67051;SDS011;53957;47.222;18.670;2022-11-09T19:16:03;69.05;;;31.90;;
67051;SDS011;53957;47.222;18.670;2022-11-09T19:19:24;63.35;;;31.02;;
67051;SDS011;53957;47.222;18.670;2022-11-09T19:22:47;70.85;;;32.70;;
67051;SDS011;53957;47.222;18.670;2022-11-09T19:26:08;73.03;;;32.88;;
67051;SDS011;53957;47.222;18.670;2022-11-09T19:29:29;68.15;;;32.55;;
67051;SDS011;53957;47.222;18.670;2022-11-09T19:32:50;74.55;;;36.33;;
67051;SDS011;53957;47.222;18.670;2022-11-09T19:36:11;72.12;;;32.70;;
67051;SDS011;53957;47.222;18.670;2022-11-09T19:39:50;70.35;;;32.95;;
67051;SDS011;53957;47.222;18.670;2022-11-09T19:43:11;72.72;;;33.70;;
67051;SDS011;53957;47.222;18.670;2022-11-09T19:46:33;75.87;;;33.53;;
67051;SDS011;53957;47.222;18.670;2022-11-09T19:49:55;68.35;;;34.20;;
67051;SDS011;53957;47.222;18.670;2022-11-09T19:53:16;68.28;;;32.70;;
67051;SDS011;53957;47.222;18.670;2022-11-09T19:56:38;65.97;;;31.58;;
67051;SDS011;53957;47.222;18.670;2022-11-09T19:59:59;66.87;;;32.22;;
67051;SDS011;53957;47.222;18.670;2022-11-09T20:03:20;71.43;;;31.80;;
67051;SDS011;53957;47.222;18.670;2022-11-09T20:06:42;67.53;;;32.83;;
67051;SDS011;53957;47.222;18.670;2022-11-09T20:10:03;70.78;;;32.90;;
67051;SDS011;53957;47.222;18.670;2022-11-09T20:13:26;73.53;;;33.20;;
67051;SDS011;53957;47.222;18.670;2022-11-09T20:16:47;77.85;;;37.05;;
67051;SDS011;53957;47.222;18.670;2022-11-09T20:20:09;73.62;;;35.38;;
67051;SDS011;53957;47.222;18.670;2022-11-09T20:23:31;66.95;;;33.38;;
67051;SDS011;53957;47.222;18.670;2022-11-09T20:26:53;67.22;;;33.67;;
67051;SDS011;53957;47.222;18.670;2022-11-09T20:30:15;72.65;;;34.63;;
67051;SDS011;53957;47.222;18.670;2022-11-09T20:33:36;68.62;;;31.48;;
67051;SDS011;53957;47.222;18.670;2022-11-09T20:36:58;68.97;;;33.63;;
67051;SDS011;53957;47.222;18.670;2022-11-09T20:40:19;76.65;;;33.30;;
67051;SDS011;53957;47.222;18.670;2022-11-09T20:43:40;67.30;;;30.73;;
67051;SDS011;53957;47.222;18.670;2022-11-09T20:47:01;73.68;;;33.03;;
67051;SDS011;53957;47.222;18.670;2022-11-09T20:50:23;67.62;;;31.15;;
67051;SDS011;53957;47.222;18.670;2022-11-09T20:53:45;65.45;;;32.00;;
67051;SDS011;53957;47.222;18.670;2022-11-09T20:57:07;66.07;;;31.60;;
67051;SDS011;53957;47.222;18.670;2022-11-09T21:00:28;71.32;;;33.83;;
67051;SDS011;53957;47.222;18.670;2022-11-09T21:03:49;72.10;;;33.33;;
67051;SDS011;53957;47.222;18.670;2022-11-09T21:07:12;65.57;;;32.63;;
67051;SDS011;53957;47.222;18.670;2022-11-09T21:10:34;65.00;;;32.20;;
67051;SDS011;53957;47.222;18.670;2022-11-09T21:13:55;69.00;;;34.08;;
67051;SDS011;53957;47.222;18.670;2022-11-09T21:17:16;73.85;;;31.05;;
67051;SDS011;53957;47.222;18.670;2022-11-09T21:20:38;61.50;;;30.65;;
67051;SDS011;53957;47.222;18.670;2022-11-09T21:23:59;64.53;;;32.33;;
67051;SDS011;53957;47.222;18.670;2022-11-09T21:27:39;58.80;;;30.23;;
67051;SDS011;53957;47.222;18.670;2022-11-09T21:31:19;61.13;;;32.72;;
67051;SDS011;53957;47.222;18.670;2022-11-09T21:34:40;73.82;;;31.42;;
67051;SDS011;53957;47.222;18.670;2022-11-09T21:38:01;62.62;;;31.23;;
67051;SDS011;53957;47.222;18.670;2022-11-09T21:41:23;64.20;;;32.00;;
67051;SDS011;53957;47.222;18.670;2022-11-09T21:44:59;66.40;;;31.50;;
67051;SDS011;53957;47.222;18.670;2022-11-09T21:48:20;65.10;;;31.83;;
67051;SDS011;53957;47.222;18.670;2022-11-09T21:51:42;61.67;;;30.75;;
67051;SDS011;53957;47.222;18.670;2022-11-09T21:55:03;64.37;;;32.55;;
67051;SDS011;53957;47.222;18.670;2022-11-09T21:58:26;66.68;;;30.70;;
67051;SDS011;53957;47.222;18.670;2022-11-09T22:01:47;63.17;;;33.53;;
67051;SDS011;53957;47.222;18.670;2022-11-09T22:05:08;62.10;;;32.03;;
67051;SDS011;53957;47.222;18.670;2022-11-09T22:08:29;61.67;;;32.33;;
67051;SDS011;53957;47.222;18.670;2022-11-09T22:11:50;62.83;;;30.52;;
67051;SDS011;53957;47.222;18.670;2022-11-09T22:15:30;71.78;;;33.47;;
67051;SDS011;53957;47.222;18.670;2022-11-09T22:19:10;70.03;;;33.92;;
67051;SDS011;53957;47.222;18.670;2022-11-09T22:22:50;62.67;;;31.37;;
67051;SDS011;53957;47.222;18.670;2022-11-09T22:26:11;62.25;;;31.75;;
67051;SDS011;53957;47.222;18.670;2022-11-09T22:29:32;57.67;;;30.27;;
67051;SDS011;53957;47.222;18.670;2022-11-09T22:32:53;56.47;;;31.08;;
67051;SDS011;53957;47.222;18.670;2022-11-09T22:36:17;63.15;;;32.10;;
67051;SDS011;53957;47.222;18.670;2022-11-09T22:39:38;60.80;;;31.35;;
67051;SDS011;53957;47.222;18.670;2022-11-09T22:43:07;61.58;;;31.37;;
67051;SDS011;53957;47.222;18.670;2022-11-09T22:46:28;59.35;;;29.98;;
67051;SDS011;53957;47.222;18.670;2022-11-09T22:49:49;58.87;;;31.50;;
67051;SDS011;53957;47.222;18.670;2022-11-09T22:53:11;71.12;;;31.27;;
67051;SDS011;53957;47.222;18.670;2022-11-09T22:56:32;66.65;;;31.42;;
67051;SDS011;53957;47.222;18.670;2022-11-09T22:59:53;61.72;;;31.27;;
67051;SDS011;53957;47.222;18.670;2022-11-09T23:03:14;65.78;;;32.97;;
67051;SDS011;53957;47.222;18.670;2022-11-09T23:06:36;60.15;;;30.08;;
67051;SDS011;53957;47.222;18.670;2022-11-09T23:09:57;65.95;;;31.70;;
67051;SDS011;53957;47.222;18.670;2022-11-09T23:13:18;62.58;;;31.62;;
67051;SDS011;53957;47.222;18.670;2022-11-09T23:16:40;60.58;;;31.10;;
67051;SDS011;53957;47.222;18.670;2022-11-09T23:20:02;68.10;;;32.30;;
67051;SDS011;53957;47.222;18.670;2022-11-09T23:23:23;58.72;;;31.12;;
67051;SDS011;53957;47.222;18.670;2022-11-09T23:26:44;54.40;;;29.20;;
67051;SDS011;53957;47.222;18.670;2022-11-09T23:30:05;62.15;;;31.17;;
67051;SDS011;53957;47.222;18.670;2022-11-09T23:33:27;63.00;;;30.73;;
67051;SDS011;53957;47.222;18.670;2022-11-09T23:36:48;59.58;;;30.25;;
67051;SDS011;53957;47.222;18.670;2022-11-09T23:40:10;54.17;;;30.10;;
67051;SDS011;53957;47.222;18.670;2022-11-09T23:43:32;53.28;;;29.33;;
67051;SDS011;53957;47.222;18.670;2022-11-09T23:46:53;59.38;;;29.30;;
67051;SDS011;53957;47.222;18.670;2022-11-09T23:50:14;59.85;;;28.33;;
67051;SDS011;53957;47.222;18.670;2022-11-09T23:53:36;59.20;;;30.30;;
67051;SDS011;53957;47.222;18.670;2022-11-09T23:56:57;64.35;;;29.00;;
